Weather History for KCFE - March, 2014

Change the Weather History Date:

Monday, March 17, 2014

  Actual Average (KSTC) Record (KSTC)
Temperature  
Mean Temperature 30 °F 30 °F  
Max Temperature 37 °F 39 °F 75 °F (2012)
Min Temperature 23 °F 20 °F -14 °F (1993)
Degree Days  
Heating Degree Days 35 35  
Month to date heating degree days 661  
Since 1 July heating degree days 7107  
Cooling Degree Days 0 0  
Month to date cooling degree days 0  
Year to date cooling degree days 0  
Moisture  
Dew Point 23 °F    
Average Humidity 75    
Maximum Humidity 85    
Minimum Humidity 63    
Precipitation  
Precipitation 0.01 in 0.06 in 1.13 in (1897)
Month to date precipitation 0.73  
Year to date precipitation 1.97  
Snow  
Snow 0.00 in 0.30 in 13.00 in (1965)
Month to date snowfall 5.5  
Since 1 July snowfall 39.7  
Snow Depth -    
Sea Level Pressure  
Sea Level Pressure 29.67 in    
Wind  
Wind Speed 10 mph (SE)    
Max Wind Speed 13 mph    
Max Gust Speed 21 mph    
Visibility 10 miles    
Events Snow    
T = Trace of Precipitation, MM = Missing Value Source: NWS Daily Summary

Daily Weather History Graph

Daily Weather History Graph

Search for Another Location

Airport or City:

Trip Planner

Search our weather history database for the weather conditions in past years. The results will help you decide how hot, cold, wet, or windy it might be!

Date:

Astronomy

Mar. 17, 2014 Rise Set
Actual Time 7:24 AM CDT 7:24 PM CDT
Civil Twilight 6:54 AM CDT 7:53 PM CDT
Nautical Twilight 6:20 AM CDT 8:27 PM CDT
Astronomical Twilight 5:45 AM CDT 9:02 PM CDT
Moon 8:46 PM CDT (3/17) 7:36 AM CDT (3/17)
Length of Visible Light 12h 58m
Length of Day
11h 59m
Full, 99% of the Moon is Illuminated
Mar 17
Full
Mar 23
Last Quarter
Mar 30
New
Apr 7
First Quarter
Apr 15
Full

Hourly Weather History & Observations

Time (CDT) Temp. Windchill Dew Point Humidity Pressure Visibility Wind Dir Wind Speed Gust Speed Precip Events Conditions
12:15 AM 23.7 °F 12.6 °F 16.7 °F 75% 29.96 in 10.0 mi SSE 11.5 mph - N/A   Scattered Clouds
12:35 AM 23.7 °F 14.0 °F 17.1 °F 76% 29.94 in 10.0 mi SSE 9.2 mph - N/A   Scattered Clouds
12:56 AM 23.7 °F 14.0 °F 17.2 °F 76% 29.92 in 10.0 mi SSE 9.2 mph - N/A   Mostly Cloudy
1:15 AM 23.7 °F 12.6 °F 17.2 °F 76% 29.90 in 10.0 mi SSE 11.5 mph - N/A   Overcast
1:35 AM 23.9 °F 12.9 °F 17.6 °F 77% 29.89 in 10.0 mi SSE 11.5 mph - N/A   Overcast
1:56 AM 23.9 °F 13.5 °F 18.1 °F 79% 29.87 in 10.0 mi SSE 10.4 mph 18.4 mph N/A   Overcast
2:15 AM 24.4 °F 15.6 °F 18.5 °F 78% 29.87 in 10.0 mi SSE 8.1 mph - N/A   Overcast
2:36 AM 24.6 °F 15.1 °F 18.5 °F 78% 29.85 in 10.0 mi SSE 9.2 mph 16.1 mph N/A   Overcast
2:55 AM 24.8 °F 15.3 °F 18.5 °F 77% 29.84 in 10.0 mi SSE 9.2 mph - N/A   Overcast
3:15 AM 24.8 °F 14.6 °F 18.5 °F 77% 29.83 in 10.0 mi SSE 10.4 mph - N/A   Overcast
3:36 AM 25.2 °F 17.3 °F 18.3 °F 75% 29.81 in 10.0 mi SSE 6.9 mph 16.1 mph N/A   Overcast
3:55 AM 25.2 °F 14.4 °F 18.1 °F 75% 29.80 in 10.0 mi SSE 11.5 mph 17.3 mph N/A   Overcast
4:15 AM 25.0 °F 15.5 °F 17.6 °F 74% 29.79 in 10.0 mi SSE 9.2 mph - N/A   Overcast
4:36 AM 24.8 °F 14.0 °F 17.2 °F 73% 29.77 in 10.0 mi SSE 11.5 mph 16.1 mph N/A   Overcast
4:55 AM 24.6 °F 14.4 °F 17.4 °F 74% 29.76 in 10.0 mi SSE 10.4 mph 17.3 mph N/A   Scattered Clouds
5:15 AM 24.6 °F 13.2 °F 18.0 °F 76% 29.76 in 10.0 mi SSE 12.7 mph 18.4 mph N/A   Mostly Cloudy
5:36 AM 24.6 °F 16.7 °F 18.5 °F 78% 29.74 in 10.0 mi SSE 6.9 mph 17.3 mph N/A   Mostly Cloudy
5:55 AM 24.8 °F 15.3 °F 18.9 °F 78% 29.74 in 10.0 mi SSE 9.2 mph 16.1 mph N/A   Mostly Cloudy
6:15 AM 24.8 °F 16.1 °F 19.2 °F 79% 29.73 in 10.0 mi SSE 8.1 mph 17.3 mph N/A   Overcast
6:36 AM 25.3 °F 16.7 °F 19.4 °F 78% 29.72 in 10.0 mi South 8.1 mph - N/A   Overcast
6:55 AM 25.5 °F 15.5 °F 19.8 °F 79% 29.70 in 10.0 mi SSE 10.4 mph 16.1 mph N/A   Overcast
7:15 AM 25.7 °F 16.4 °F 20.7 °F 81% 29.69 in 7.0 mi SSE 9.2 mph 17.3 mph N/A   Overcast
7:36 AM 25.7 °F 15.7 °F 20.7 °F 81% 29.68 in 10.0 mi SSE 10.4 mph 20.7 mph N/A   Overcast
7:55 AM 26.2 °F 15.8 °F 20.8 °F 80% 29.68 in 5.0 mi South 11.5 mph 17.3 mph N/A   Overcast
8:15 AM 26.4 °F 16.0 °F 21.6 °F 82% 29.66 in 7.0 mi SSE 11.5 mph 19.6 mph N/A   Overcast
8:36 AM 26.6 °F 17.5 °F 22.3 °F 84% 29.65 in 5.0 mi SSE 9.2 mph 19.6 mph N/A   Overcast
8:55 AM 26.8 °F 17.1 °F 22.6 °F 84% 29.64 in 7.0 mi SSE 10.4 mph 18.4 mph N/A   Overcast
9:15 AM 26.8 °F 15.9 °F 22.8 °F 85% 29.64 in 10.0 mi SSE 12.7 mph 17.3 mph N/A   Overcast
9:35 AM 27.3 °F 16.6 °F 23.0 °F 84% 29.63 in 10.0 mi SSE 12.7 mph - N/A   Overcast
9:55 AM 27.3 °F 20.9 °F 22.8 °F 83% 29.64 in 10.0 mi SSE 5.8 mph 16.1 mph N/A   Overcast
10:16 AM 27.5 °F 19.3 °F 23.2 °F 84% 29.65 in 5.0 mi SSE 8.1 mph - N/A   Overcast
10:35 AM 28.0 °F 19.3 °F 23.5 °F 83% 29.64 in 4.0 mi SSE 9.2 mph - N/A Snow Light Snow
10:55 AM 28.8 °F 20.2 °F 23.9 °F 82% 29.62 in 10.0 mi SE 9.2 mph - N/A   Overcast
11:16 AM 29.8 °F 21.5 °F 24.1 °F 79% 29.61 in 10.0 mi SSE 9.2 mph - N/A   Overcast
11:35 AM 30.9 °F 22.2 °F 24.6 °F 77% 29.61 in 10.0 mi SE 10.4 mph 16.1 mph 0.01 in   Mostly Cloudy
11:55 AM 31.8 °F 23.9 °F 24.8 °F 75% 29.61 in 10.0 mi SSE 9.2 mph - 0.01 in   Mostly Cloudy
12:16 PM 32.0 °F 23.0 °F 24.1 °F 73% 29.61 in 10.0 mi South 11.5 mph 16.1 mph N/A   Scattered Clouds
12:35 PM 32.2 °F 23.2 °F 24.4 °F 73% 29.60 in 10.0 mi SSE 11.5 mph - N/A   Clear
12:55 PM 32.7 °F 25.0 °F 24.1 °F 71% 29.60 in 10.0 mi SSE 9.2 mph 16.1 mph N/A   Mostly Cloudy
1:16 PM 33.1 °F 24.4 °F 23.9 °F 69% 29.60 in 10.0 mi SSE 11.5 mph - N/A   Scattered Clouds
1:35 PM 33.8 °F 25.8 °F 24.8 °F 70% 29.59 in 10.0 mi SSE 10.4 mph - N/A   Scattered Clouds
1:55 PM 34.5 °F 27.9 °F 24.6 °F 67% 29.59 in 10.0 mi SSE 8.1 mph - N/A   Clear
2:16 PM 35.1 °F 28.6 °F 25.0 °F 67% 29.58 in 10.0 mi SE 8.1 mph - N/A   Scattered Clouds
2:35 PM 35.1 °F 26.9 °F 24.6 °F 66% 29.58 in 10.0 mi SSE 11.5 mph 16.1 mph N/A   Clear
2:55 PM 34.7 °F 26.4 °F 24.8 °F 67% 29.56 in 10.0 mi SE 11.5 mph - N/A   Scattered Clouds
3:15 PM 35.4 °F 28.4 °F 25.2 °F 66% 29.56 in 10.0 mi SE 9.2 mph - N/A   Clear
3:35 PM 36.1 °F 30.6 °F 25.7 °F 66% 29.56 in 10.0 mi SE 6.9 mph - N/A   Scattered Clouds
3:55 PM 37.4 °F 30.3 °F 26.4 °F 65% 29.55 in 10.0 mi SE 10.4 mph 18.4 mph N/A   Scattered Clouds
4:15 PM 37.0 °F 31.6 °F 25.9 °F 64% 29.57 in 10.0 mi SE 6.9 mph - N/A   Scattered Clouds
4:36 PM 37.4 °F 31.4 °F 25.9 °F 63% 29.57 in 10.0 mi SE 8.1 mph - N/A   Scattered Clouds
4:55 PM 37.2 °F 31.2 °F 26.4 °F 65% 29.57 in 10.0 mi SE 8.1 mph - N/A   Scattered Clouds
5:15 PM 36.5 °F 30.3 °F 26.4 °F 67% 29.55 in 10.0 mi SE 8.1 mph - N/A   Scattered Clouds
5:36 PM 37.4 °F 30.8 °F 27.0 °F 66% 29.54 in 10.0 mi ESE 9.2 mph - N/A   Scattered Clouds
5:55 PM 37.4 °F 30.8 °F 26.6 °F 65% 29.56 in 10.0 mi ESE 9.2 mph - N/A   Clear
6:15 PM 37.4 °F 30.8 °F 26.8 °F 66% 29.57 in 10.0 mi ESE 9.2 mph - N/A   Clear
6:36 PM 36.7 °F 29.4 °F 27.1 °F 68% 29.57 in 10.0 mi East 10.4 mph - N/A   Clear
6:55 PM 34.9 °F 29.0 °F 26.6 °F 72% 29.58 in 10.0 mi East 6.9 mph - N/A   Clear
7:15 PM 33.8 °F 27.7 °F 26.6 °F 75% 29.59 in 10.0 mi East 6.9 mph - N/A   Scattered Clouds
7:35 PM 33.1 °F 26.9 °F 27.0 °F 78% 29.59 in 10.0 mi East 6.9 mph - N/A   Scattered Clouds
7:56 PM 32.9 °F 25.9 °F 27.0 °F 79% 29.60 in 10.0 mi East 8.1 mph - N/A   Scattered Clouds
8:15 PM 32.9 °F 25.9 °F 26.6 °F 78% 29.60 in 10.0 mi East 8.1 mph - N/A   Mostly Cloudy
8:35 PM 32.4 °F 25.3 °F 26.8 °F 80% 29.60 in 10.0 mi East 8.1 mph - N/A   Scattered Clouds
8:56 PM 32.4 °F 26.0 °F 26.6 °F 79% 29.61 in 10.0 mi East 6.9 mph - N/A   Scattered Clouds
9:15 PM 32.4 °F 25.3 °F 26.4 °F 79% 29.61 in 10.0 mi East 8.1 mph - N/A   Mostly Cloudy
9:35 PM 32.2 °F 24.4 °F 25.7 °F 77% 29.61 in 10.0 mi East 9.2 mph - N/A   Scattered Clouds
9:55 PM 32.2 °F 25.0 °F 25.7 °F 77% 29.61 in 10.0 mi East 8.1 mph - N/A   Clear
10:15 PM 32.2 °F 24.4 °F 25.5 °F 76% 29.62 in 10.0 mi East 9.2 mph - N/A   Clear
10:36 PM 32.0 °F 24.8 °F 25.7 °F 78% 29.63 in 10.0 mi ENE 8.1 mph - N/A   Clear
10:55 PM 32.0 °F 25.6 °F 25.7 °F 78% 29.63 in 10.0 mi ENE 6.9 mph - N/A   Clear
11:15 PM 32.0 °F 23.6 °F 25.5 °F 77% 29.63 in 10.0 mi ENE 10.4 mph - N/A   Scattered Clouds
11:36 PM 31.8 °F 24.6 °F 25.2 °F 76% 29.63 in 10.0 mi ENE 8.1 mph - N/A   Scattered Clouds
11:55 PM 31.6 °F 25.1 °F 25.2 °F 77% 29.64 in 10.0 mi ENE 6.9 mph - N/A   Clear